Time;durP1;ratioP1;P1;durP2;ratioP2;P2;SDS_P1;SDS_P2;PMS_P1;PMS_P2;Temp;Humidity;BMP_temperature;BMP_pressure;BME280_temperature;BME280_humidity;BME280_pressure;Samples;Min_cycle;Max_cycle;Signal;HPM_P1;HPM_P2
2022/06/19 00:00:05;;;;;;;7.95;7.18;;;;;;;17.89;61.29;95373.31;5059176;28;20228;-67
2022/06/19 00:02:31;;;;;;;7.22;6.53;;;;;;;17.84;61.58;95371.22;5055010;28;20225;-68
2022/06/19 00:04:57;;;;;;;7.82;7.03;;;;;;;17.75;62.06;95365.16;5056012;28;20224;-66
2022/06/19 00:07:23;;;;;;;6.90;6.20;;;;;;;17.96;60.86;95371.53;5056811;28;20205;-69
2022/06/19 00:09:48;;;;;;;7.00;6.22;;;;;;;17.76;61.73;95368.63;5093922;28;20227;-65
2022/06/19 00:12:16;;;;;;;7.03;5.68;;;;;;;17.84;61.06;95365.88;5062559;28;20359;-66
2022/06/19 00:14:42;;;;;;;7.18;6.47;;;;;;;17.80;61.66;95364.59;5054234;28;20221;-64
2022/06/19 00:17:09;;;;;;;7.85;6.32;;;;;;;17.95;60.72;95367.22;5062025;28;20231;-67
2022/06/19 00:19:35;;;;;;;10.27;6.13;;;;;;;17.73;61.72;95363.69;5061949;28;20225;-64
2022/06/19 00:22:02;;;;;;;7.35;6.53;;;;;;;17.45;63.07;95368.88;5057415;28;20192;-64
2022/06/19 00:24:29;;;;;;;7.55;6.22;;;;;;;17.54;62.76;95373.09;5060273;28;20230;-67
2022/06/19 00:26:55;;;;;;;8.15;6.25;;;;;;;17.46;63.29;95371.34;5056440;28;20290;-67
2022/06/19 00:29:20;;;;;;;6.95;5.95;;;;;;;17.53;62.85;95366.09;5057786;28;20244;-68
2022/06/19 00:31:46;;;;;;;6.53;5.93;;;;;;;17.66;62.07;95376.06;5057714;28;20241;-63
2022/06/19 00:34:11;;;;;;;7.38;6.18;;;;;;;17.66;62.02;95360.94;5053302;28;20204;-69
2022/06/19 00:36:36;;;;;;;7.07;6.43;;;;;;;17.47;62.49;95367.66;5054867;28;20279;-66
2022/06/19 00:39:03;;;;;;;7.78;6.15;;;;;;;17.59;62.30;95371.50;5055793;28;20221;-63
2022/06/19 00:41:39;;;;;;;7.25;6.40;;;;;;;17.58;62.39;95372.50;5059263;28;20328;-68
2022/06/19 00:44:08;;;;;;;6.72;5.82;;;;;;;17.48;63.02;95368.50;5056951;28;20224;-64
2022/06/19 00:47:17;;;;;;;7.13;6.43;;;;;;;17.53;62.60;95366.09;5059768;28;20218;-69
2022/06/19 00:49:58;;;;;;;6.60;6.00;;;;;;;17.69;61.51;95365.88;5010444;28;20256;-67
2022/06/19 00:52:29;;;;;;;8.30;5.93;;;;;;;17.35;62.69;95363.84;5009474;28;20337;-66
2022/06/19 00:55:09;;;;;;;10.00;5.90;;;;;;;17.38;62.49;95366.13;5022691;28;20344;-64
2022/06/19 00:57:38;;;;;;;6.10;5.30;;;;;;;17.20;62.91;95367.34;5002347;28;20665;-69
2022/06/19 01:00:16;;;;;;;7.55;5.78;;;;;;;17.32;62.62;95374.84;5003800;28;20229;-69
2022/06/19 01:02:46;;;;;;;7.60;5.80;;;;;;;17.46;61.71;95384.66;5022575;28;20230;-64
2022/06/19 01:05:15;;;;;;;6.82;6.10;;;;;;;17.31;62.52;95374.00;5004841;28;20253;-63
2022/06/19 01:07:43;;;;;;;9.50;6.05;;;;;;;17.33;62.48;95369.34;5006138;28;20224;-64
2022/06/19 01:10:12;;;;;;;6.55;5.88;;;;;;;17.31;62.16;95358.06;5011708;28;20218;-66
2022/06/19 01:12:42;;;;;;;6.15;5.65;;;;;;;16.97;63.87;95370.09;5014169;28;20276;-68
2022/06/19 01:15:13;;;;;;;6.53;6.03;;;;;;;16.91;63.93;95368.16;5008300;28;20229;-64
2022/06/19 01:17:39;;;;;;;7.07;6.43;;;;;;;16.90;64.52;95371.81;5003788;28;20225;-62
2022/06/19 01:20:09;;;;;;;6.93;5.85;;;;;;;16.83;64.60;95375.38;5028741;28;20225;-65
2022/06/19 01:22:43;;;;;;;6.15;5.40;;;;;;;16.86;64.50;95364.41;5009083;28;20209;-63
2022/06/19 01:25:18;;;;;;;6.57;5.88;;;;;;;16.91;64.22;95368.16;5061103;28;20263;-62
2022/06/19 01:30:35;;;;;;;8.30;5.80;;;;;;;16.85;64.46;95360.09;5054445;28;20227;-63
2022/06/19 01:33:03;;;;;;;6.15;5.57;;;;;;;16.60;65.38;95367.44;5059208;28;20273;-68
2022/06/19 01:35:33;;;;;;;6.25;5.65;;;;;;;16.66;65.31;95359.59;5059060;28;20217;-63
2022/06/19 01:38:01;;;;;;;6.70;5.78;;;;;;;16.78;64.79;95361.81;5051896;28;20224;-67
2022/06/19 01:40:33;;;;;;;6.05;5.55;;;;;;;16.72;64.93;95361.50;5057521;28;20219;-67
2022/06/19 01:42:58;;;;;;;6.97;5.57;;;;;;;16.72;64.94;95358.03;5060378;28;20221;-64
2022/06/19 01:45:24;;;;;;;8.82;6.10;;;;;;;16.71;65.09;95367.84;5057270;28;20324;-68
2022/06/19 01:47:50;;;;;;;5.97;5.43;;;;;;;16.58;65.29;95367.63;5054665;28;20221;-69
2022/06/19 01:50:21;;;;;;;6.65;5.95;;;;;;;16.67;65.03;95365.72;5058499;28;20307;-66
2022/06/19 01:52:51;;;;;;;8.18;6.50;;;;;;;16.60;64.87;95367.44;5059118;28;20212;-67
2022/06/19 01:55:19;;;;;;;9.75;6.30;;;;;;;16.66;64.41;95369.38;5077411;28;20209;-65
2022/06/19 01:57:49;;;;;;;6.57;5.78;;;;;;;16.61;64.10;95364.63;5064435;28;20729;-67
2022/06/19 02:00:23;;;;;;;6.18;5.68;;;;;;;16.58;64.24;95367.63;5068897;28;20224;-69
2022/06/19 02:02:55;;;;;;;6.85;6.25;;;;;;;16.71;64.03;95367.84;5066354;28;20221;-69
2022/06/19 02:05:22;;;;;;;6.75;5.90;;;;;;;16.66;63.69;95364.91;5064779;28;20215;-65
2022/06/19 02:07:48;;;;;;;6.05;5.55;;;;;;;16.53;64.67;95362.03;5059924;28;20221;-64
2022/06/19 02:10:14;;;;;;;7.07;5.90;;;;;;;16.15;66.33;95367.34;5065358;28;20225;-68
2022/06/19 02:12:39;;;;;;;7.57;6.13;;;;;;;16.07;66.77;95367.41;5061938;28;20482;-66
2022/06/19 02:15:09;;;;;;;6.78;6.07;;;;;;;16.22;66.27;95368.25;5070302;28;20224;-68
2022/06/19 02:17:42;;;;;;;6.25;5.75;;;;;;;16.27;65.98;95373.84;5063958;28;20291;-64
2022/06/19 02:20:09;;;;;;;7.78;5.85;;;;;;;16.42;65.58;95378.41;5059386;28;20306;-65
2022/06/19 02:22:35;;;;;;;6.53;5.93;;;;;;;16.37;65.54;95386.06;5059088;28;20254;-65
2022/06/19 02:25:02;;;;;;;7.38;6.65;;;;;;;16.30;65.63;95376.19;5058863;28;20623;-66
2022/06/19 02:27:30;;;;;;;6.88;6.38;;;;;;;16.28;65.97;95377.34;5063653;28;20232;-70
2022/06/19 02:29:56;;;;;;;7.75;6.00;;;;;;;16.27;65.86;95378.34;5060075;28;20221;-67
2022/06/19 02:32:25;;;;;;;6.70;6.10;;;;;;;16.32;65.82;95378.63;5069749;28;20213;-64
2022/06/19 02:34:52;;;;;;;7.38;6.68;;;;;;;16.25;66.29;95377.69;5063417;28;20205;-68
2022/06/19 02:37:24;;;;;;;8.52;6.57;;;;;;;16.18;66.28;95382.06;5059546;28;20968;-68
2022/06/19 02:39:56;;;;;;;7.50;6.32;;;;;;;16.24;66.22;95382.16;5063550;28;20378;-66
2022/06/19 02:42:24;;;;;;;7.95;6.90;;;;;;;16.16;66.64;95392.03;5057418;28;20229;-67
2022/06/19 02:44:56;;;;;;;6.85;6.13;;;;;;;16.07;66.77;95386.78;5054291;28;20271;-65
2022/06/19 02:47:24;;;;;;;10.50;6.47;;;;;;;16.09;67.02;95383.94;5060055;28;20220;-68
2022/06/19 02:49:50;;;;;;;9.40;6.30;;;;;;;16.17;66.53;95389.22;5063659;28;20325;-63
2022/06/19 02:52:16;;;;;;;6.97;6.28;;;;;;;16.28;65.88;95387.97;5061234;28;20213;-66
2022/06/19 02:54:41;;;;;;;6.55;5.82;;;;;;;16.31;65.47;95387.59;5057560;28;20225;-65
2022/06/19 02:57:08;;;;;;;9.35;6.35;;;;;;;16.25;65.83;95388.28;5054250;28;20225;-64
2022/06/19 02:59:34;;;;;;;8.48;6.63;;;;;;;16.16;66.08;95400.81;5054931;28;20226;-69
2022/06/19 03:02:00;;;;;;;8.35;6.35;;;;;;;15.90;66.94;95400.31;5071207;28;20217;-64
2022/06/19 03:04:33;;;;;;;9.75;6.57;;;;;;;16.00;66.99;95395.63;5066586;28;20227;-69
2022/06/19 03:06:59;;;;;;;7.82;6.97;;;;;;;15.87;67.04;95397.00;5065723;28;20595;-69
2022/06/19 03:09:24;;;;;;;8.35;7.50;;;;;;;15.48;69.20;95405.00;5062228;28;20224;-64
2022/06/19 03:11:50;;;;;;;7.70;7.00;;;;;;;15.88;67.49;95400.50;5059609;28;20221;-66
2022/06/19 03:14:16;;;;;;;8.25;7.45;;;;;;;15.99;66.77;95404.59;5061713;28;20228;-63
2022/06/19 03:16:42;;;;;;;7.50;6.82;;;;;;;15.77;67.02;95404.38;5056387;28;20232;-64
2022/06/19 03:19:07;;;;;;;7.75;7.10;;;;;;;15.46;68.40;95408.81;5065403;28;20220;-67
2022/06/19 03:21:33;;;;;;;9.18;7.57;;;;;;;15.40;69.21;95408.50;5066087;28;20320;-68
2022/06/19 03:23:58;;;;;;;7.47;6.72;;;;;;;15.60;68.46;95418.66;5063441;28;20228;-66
2022/06/19 03:26:26;;;;;;;6.82;6.32;;;;;;;15.70;68.19;95421.97;5066123;28;20220;-69
2022/06/19 03:28:52;;;;;;;7.22;6.60;;;;;;;15.75;67.72;95419.63;5057840;28;20208;-69
2022/06/19 03:31:21;;;;;;;7.65;6.82;;;;;;;15.88;67.24;95419.91;5063198;28;20577;-62
2022/06/19 03:33:47;;;;;;;7.88;7.18;;;;;;;15.92;67.22;95407.09;5057048;28;20221;-68
2022/06/19 03:36:12;;;;;;;6.78;6.28;;;;;;;16.03;66.28;95409.34;5056352;28;20267;-68
2022/06/19 03:38:38;;;;;;;7.30;6.70;;;;;;;16.12;65.67;95402.19;5063821;28;20217;-64
2022/06/19 03:41:03;;;;;;;7.35;6.65;;;;;;;16.05;65.94;95403.88;5067469;28;20304;-68
2022/06/19 03:43:29;;;;;;;7.10;6.50;;;;;;;16.13;66.01;95406.47;5065090;28;20212;-63
2022/06/19 03:46:03;;;;;;;10.25;7.05;;;;;;;16.20;65.89;95411.88;5066561;28;20223;-62
2022/06/19 03:48:29;;;;;;;7.43;6.72;;;;;;;16.15;65.68;95401.81;5077631;28;20232;-66
2022/06/19 03:50:54;;;;;;;7.95;7.13;;;;;;;16.21;65.86;95401.09;5063076;28;20232;-65
2022/06/19 03:53:20;;;;;;;7.25;6.60;;;;;;;16.17;66.26;95404.28;5059061;28;20224;-62
2022/06/19 03:55:47;;;;;;;9.93;7.03;;;;;;;16.29;65.91;95401.03;5057683;28;20200;-62
2022/06/19 03:58:13;;;;;;;8.52;7.05;;;;;;;16.28;65.98;95398.59;5063279;28;20212;-62
2022/06/19 04:00:39;;;;;;;7.82;6.85;;;;;;;16.40;65.04;95401.63;5062373;28;20239;-65
2022/06/19 04:03:04;;;;;;;7.95;6.82;;;;;;;16.36;65.23;95390.56;5063094;28;20317;-65
2022/06/19 04:05:30;;;;;;;8.75;6.63;;;;;;;16.49;64.59;95406.72;5062494;28;20247;-69
2022/06/19 04:07:57;;;;;;;8.13;7.10;;;;;;;16.44;64.74;95402.91;5055515;28;20233;-69
2022/06/19 04:10:23;;;;;;;8.18;7.38;;;;;;;16.58;64.48;95403.97;5055229;28;20212;-66
2022/06/19 04:12:48;;;;;;;9.82;7.57;;;;;;;16.59;64.52;95413.59;5058448;28;20245;-69
2022/06/19 04:15:14;;;;;;;8.40;7.40;;;;;;;16.66;64.09;95415.34;5059789;28;20236;-66
2022/06/19 04:17:40;;;;;;;8.40;7.60;;;;;;;16.66;64.34;95410.03;5069765;28;20286;-66
2022/06/19 04:20:08;;;;;;;9.43;8.63;;;;;;;16.83;64.33;95410.72;5060793;28;20225;-68
2022/06/19 04:22:34;;;;;;;10.50;9.25;;;;;;;17.20;63.56;95409.03;5055045;28;20205;-62
2022/06/19 04:25:00;;;;;;;10.75;9.65;;;;;;;17.09;63.50;95414.81;5061602;28;20240;-69
2022/06/19 04:27:26;;;;;;;11.05;9.30;;;;;;;16.96;63.89;95413.59;5056107;28;20279;-64
2022/06/19 04:29:52;;;;;;;9.95;9.15;;;;;;;16.97;64.07;95409.94;5060272;28;20241;-64
2022/06/19 04:32:17;;;;;;;10.98;9.88;;;;;;;16.75;64.32;95406.28;5055381;28;20252;-68
2022/06/19 04:34:43;;;;;;;10.38;9.50;;;;;;;16.55;65.08;95413.13;5040323;28;20237;-68
2022/06/19 04:37:08;;;;;;;9.65;8.77;;;;;;;16.66;64.76;95407.38;5043527;28;20208;-64
2022/06/19 04:39:34;;;;;;;11.13;9.90;;;;;;;16.80;64.45;95407.63;5050442;28;20221;-65
2022/06/19 04:42:00;;;;;;;10.02;9.07;;;;;;;16.96;63.42;95408.28;5064333;28;20227;-68
2022/06/19 04:44:26;;;;;;;10.82;9.73;;;;;;;17.01;63.39;95421.03;5052914;28;20276;-64
2022/06/19 04:46:51;;;;;;;10.27;9.43;;;;;;;17.01;63.67;95414.88;5055152;28;20256;-68
2022/06/19 04:49:17;;;;;;;10.25;9.35;;;;;;;17.05;63.22;95414.31;5059340;28;20303;-66
2022/06/19 04:51:43;;;;;;;10.07;9.18;;;;;;;17.09;62.89;95415.63;5065619;28;20319;-67
2022/06/19 04:54:09;;;;;;;11.13;9.93;;;;;;;17.16;62.51;95413.06;5062641;28;20235;-68
2022/06/19 04:56:35;;;;;;;10.45;9.55;;;;;;;17.13;62.43;95410.75;5056563;28;20220;-70
2022/06/19 04:59:05;;;;;;;9.40;8.57;;;;;;;17.18;62.01;95422.50;5057606;28;20224;-69
2022/06/19 05:01:37;;;;;;;10.38;9.30;;;;;;;17.28;61.84;95426.72;5062200;28;20209;-67
2022/06/19 05:04:07;;;;;;;9.70;8.48;;;;;;;17.23;62.02;95418.47;5054516;28;20252;-64
2022/06/19 05:06:33;;;;;;;7.85;7.15;;;;;;;17.39;61.35;95434.22;5062837;28;20221;-66
2022/06/19 05:08:58;;;;;;;7.63;6.97;;;;;;;17.41;60.75;95411.78;5066485;28;20259;-67
2022/06/19 05:11:26;;;;;;;9.15;7.70;;;;;;;17.49;60.36;95428.66;5054443;28;20223;-65
2022/06/19 05:13:52;;;;;;;11.20;9.15;;;;;;;17.47;60.30;95415.53;5053801;28;20248;-64
2022/06/19 05:16:19;;;;;;;8.60;7.85;;;;;;;17.62;59.94;95424.31;5058067;28;20193;-65
2022/06/19 05:18:45;;;;;;;8.23;7.18;;;;;;;17.50;60.30;95422.31;5056277;28;20274;-65
2022/06/19 05:21:11;;;;;;;7.05;6.32;;;;;;;17.45;59.71;95422.84;5056670;28;20282;-67
2022/06/19 05:23:41;;;;;;;7.32;6.13;;;;;;;17.42;60.05;95428.53;5052878;28;20212;-68
2022/06/19 05:26:10;;;;;;;7.88;6.68;;;;;;;17.53;59.64;95424.59;5057982;28;20220;-62
2022/06/19 05:28:36;;;;;;;8.23;6.30;;;;;;;17.68;59.37;95428.06;5053319;28;20284;-65
2022/06/19 05:31:02;;;;;;;6.57;6.00;;;;;;;17.68;59.11;95428.06;5058487;28;20299;-68
2022/06/19 05:33:29;;;;;;;5.65;5.25;;;;;;;17.56;59.67;95433.06;5055953;28;20277;-64
2022/06/19 05:35:55;;;;;;;6.35;5.78;;;;;;;17.57;60.00;95432.03;5053471;28;20225;-63
2022/06/19 05:38:21;;;;;;;5.72;5.15;;;;;;;17.73;59.33;95435.50;5051348;28;20227;-64
2022/06/19 05:40:49;;;;;;;5.60;5.05;;;;;;;17.76;59.26;95429.81;5074169;28;20224;-62
2022/06/19 05:43:14;;;;;;;6.05;5.50;;;;;;;17.78;58.93;95431.28;5077059;28;20208;-64
2022/06/19 05:45:53;;;;;;;5.82;4.95;;;;;;;17.92;58.26;95429.63;5061575;28;20221;-68
2022/06/19 05:48:19;;;;;;;5.78;5.28;;;;;;;17.97;58.57;95435.19;5058448;28;20320;-68
2022/06/19 05:50:45;;;;;;;5.45;5.05;;;;;;;17.99;58.65;95433.19;5051005;28;20221;-64
2022/06/19 05:53:11;;;;;;;6.13;5.10;;;;;;;17.99;58.38;95430.53;5058949;28;20213;-64
2022/06/19 05:55:37;;;;;;;5.15;4.63;;;;;;;18.04;58.06;95422.81;5055077;28;20242;-64
2022/06/19 05:58:02;;;;;;;5.35;4.50;;;;;;;18.05;58.42;95424.44;5059596;28;20296;-69
2022/06/19 06:00:28;;;;;;;4.90;4.18;;;;;;;18.20;57.99;95428.88;5057097;28;20256;-69
2022/06/19 06:02:53;;;;;;;5.07;4.57;;;;;;;18.04;58.61;95425.47;5060116;28;20246;-63
2022/06/19 06:05:18;;;;;;;7.03;4.78;;;;;;;18.18;58.38;95425.63;5062563;28;20232;-63
2022/06/19 06:07:44;;;;;;;5.32;4.47;;;;;;;18.33;57.89;95434.34;5061359;28;20259;-68
2022/06/19 06:10:10;;;;;;;5.32;4.80;;;;;;;18.35;57.47;95421.69;5054668;28;20220;-65
2022/06/19 06:12:36;;;;;;;4.93;4.57;;;;;;;18.40;57.33;95424.59;5059454;28;20314;-66
2022/06/19 06:15:02;;;;;;;5.53;4.97;;;;;;;18.46;56.78;95421.16;5053140;28;20226;-64
2022/06/19 06:17:27;;;;;;;5.88;5.32;;;;;;;18.51;56.66;95418.75;5039846;28;20217;-69
2022/06/19 06:19:52;;;;;;;5.70;4.68;;;;;;;18.49;57.07;95420.78;5072156;28;20247;-70
2022/06/19 06:22:18;;;;;;;5.30;4.80;;;;;;;18.55;56.94;95421.03;5063451;28;20276;-64
2022/06/19 06:24:43;;;;;;;5.10;4.60;;;;;;;18.61;56.70;95428.28;5059515;28;20223;-68
2022/06/19 06:27:09;;;;;;;5.03;4.38;;;;;;;18.64;57.03;95433.22;5056801;28;20220;-62
2022/06/19 06:29:35;;;;;;;5.05;4.32;;;;;;;18.71;56.53;95420.75;5056917;28;20285;-66
2022/06/19 06:32:00;;;;;;;5.35;4.95;;;;;;;18.82;56.39;95427.44;5060691;28;20627;-62
2022/06/19 06:34:26;;;;;;;5.43;5.03;;;;;;;18.89;56.03;95425.66;5066076;28;20205;-68
2022/06/19 06:36:51;;;;;;;5.10;4.60;;;;;;;18.91;56.23;95427.13;5057207;28;20221;-68
2022/06/19 06:39:16;;;;;;;5.57;4.95;;;;;;;19.01;56.09;95426.78;5047468;28;20336;-68
2022/06/19 06:41:42;;;;;;;5.65;5.15;;;;;;;19.01;56.01;95418.78;5063803;28;20232;-64
2022/06/19 06:44:12;;;;;;;5.53;5.07;;;;;;;19.04;55.52;95418.41;5052250;28;20255;-62
2022/06/19 06:46:38;;;;;;;5.72;5.13;;;;;;;19.13;55.06;95430.53;5038575;28;20198;-68
2022/06/19 06:49:04;;;;;;;7.03;5.00;;;;;;;19.14;55.36;95420.72;5044363;28;20781;-68
2022/06/19 06:51:31;;;;;;;4.88;3.90;;;;;;;19.18;55.63;95420.13;5038740;28;20221;-69
2022/06/19 06:53:58;;;;;;;4.30;3.90;;;;;;;19.30;53.00;95419.56;5042279;28;20225;-62
2022/06/19 06:56:24;;;;;;;6.18;4.43;;;;;;;19.27;53.50;95412.81;5055843;28;20241;-69
2022/06/19 06:58:50;;;;;;;4.90;4.50;;;;;;;19.43;53.32;95410.84;5038729;28;20272;-66
2022/06/19 07:01:22;;;;;;;4.35;3.47;;;;;;;19.39;51.46;95421.06;5070380;28;20209;-63
2022/06/19 07:03:52;;;;;;;3.47;3.17;;;;;;;19.41;50.03;95407.56;5040749;28;20222;-63
2022/06/19 07:06:18;;;;;;;3.88;2.95;;;;;;;19.46;50.77;95402.44;5043473;28;20256;-66
2022/06/19 07:08:43;;;;;;;4.85;3.30;;;;;;;19.46;51.40;95392.63;5038731;28;20248;-64
2022/06/19 07:11:24;;;;;;;4.30;3.72;;;;;;;19.61;51.16;95403.13;5045664;28;20359;-63
2022/06/19 07:13:50;;;;;;;3.58;2.40;;;;;;;19.62;49.27;95404.78;5043742;28;20241;-65
2022/06/19 07:16:15;;;;;;;2.63;2.42;;;;;;;19.67;48.29;95389.03;5040176;28;20213;-65
2022/06/19 07:18:40;;;;;;;3.13;2.50;;;;;;;19.65;48.23;95388.38;5034942;28;20333;-66
2022/06/19 07:21:06;;;;;;;2.45;2.13;;;;;;;19.74;45.89;95397.88;5053187;28;20224;-69
2022/06/19 07:23:32;;;;;;;2.80;2.33;;;;;;;19.73;45.45;95390.91;5042381;28;20225;-63
2022/06/19 07:25:57;;;;;;;4.75;2.08;;;;;;;19.89;45.99;95388.88;5044236;28;20222;-69
2022/06/19 07:28:22;;;;;;;4.47;2.30;;;;;;;19.99;45.21;95386.66;5044628;28;20210;-62
2022/06/19 07:30:48;;;;;;;2.72;2.05;;;;;;;20.10;43.46;95379.91;5060214;28;20232;-64
2022/06/19 07:33:14;;;;;;;2.22;2.00;;;;;;;20.13;43.11;95380.34;5053951;28;20221;-64
2022/06/19 07:35:39;;;;;;;3.30;1.70;;;;;;;20.09;42.87;95379.09;5062024;28;20244;-64
2022/06/19 07:38:05;;;;;;;2.45;1.70;;;;;;;20.04;42.17;95385.03;5059499;28;20212;-64
2022/06/19 07:40:31;;;;;;;5.15;1.83;;;;;;;20.12;42.16;95378.69;5063009;28;20303;-68
2022/06/19 07:42:56;;;;;;;3.92;2.05;;;;;;;20.24;41.39;95377.09;5063886;28;20225;-62
2022/06/19 07:45:22;;;;;;;2.05;1.90;;;;;;;20.25;41.54;95384.06;5061957;28;20252;-68
2022/06/19 07:50:31;;;;;;;2.13;1.90;;;;;;;20.26;41.22;95374.19;5058663;28;20286;-63
2022/06/19 07:52:57;;;;;;;1.70;1.60;;;;;;;20.39;40.64;95378.75;5061985;28;20218;-66
2022/06/19 07:55:26;;;;;;;2.92;2.35;;;;;;;20.39;41.80;95384.09;5057462;28;20196;-64
2022/06/19 07:57:52;;;;;;;2.83;1.95;;;;;;;20.50;41.67;95386.13;5054787;28;20270;-68
2022/06/19 08:00:27;;;;;;;3.58;1.67;;;;;;;20.55;40.79;95383.72;5062906;28;20224;-62
2022/06/19 08:02:53;;;;;;;3.60;1.95;;;;;;;20.60;40.03;95380.44;5060915;28;20228;-65
2022/06/19 08:05:46;;;;;;;1.90;1.70;;;;;;;20.53;40.48;95383.09;5059654;28;20219;-66
2022/06/19 08:08:20;;;;;;;2.17;1.70;;;;;;;20.57;38.73;95384.34;5064574;28;20221;-63
2022/06/19 08:10:50;;;;;;;1.45;1.35;;;;;;;20.66;38.27;95379.59;5043156;28;20255;-65
2022/06/19 08:13:19;;;;;;;1.70;1.60;;;;;;;20.82;38.70;95378.38;5046580;28;20236;-65
2022/06/19 08:15:49;;;;;;;1.70;1.52;;;;;;;20.68;38.93;95365.00;5044436;28;20304;-62
2022/06/19 08:18:15;;;;;;;1.75;1.60;;;;;;;20.75;38.27;95372.22;5046552;28;20310;-65
2022/06/19 08:20:41;;;;;;;2.40;1.58;;;;;;;20.97;38.27;95370.97;5039396;28;20231;-67
2022/06/19 08:23:06;;;;;;;1.80;1.30;;;;;;;20.89;38.10;95372.00;5062443;28;20256;-68
2022/06/19 08:25:32;;;;;;;3.20;1.40;;;;;;;21.00;37.75;95370.53;5062582;28;20209;-64
2022/06/19 08:27:58;;;;;;;4.15;1.80;;;;;;;21.03;38.16;95374.66;5044918;28;20223;-62
2022/06/19 08:30:30;;;;;;;2.65;1.83;;;;;;;21.08;38.33;95367.66;5043484;28;20575;-66
2022/06/19 08:32:56;;;;;;;1.98;1.45;;;;;;;21.18;38.92;95367.22;5042404;28;20228;-66
2022/06/19 08:35:26;;;;;;;1.67;1.52;;;;;;;21.20;39.41;95365.16;5044098;28;20217;-63
2022/06/19 08:37:57;;;;;;;1.65;1.40;;;;;;;21.18;38.73;95350.38;5061366;28;20216;-65
2022/06/19 08:40:41;;;;;;;1.60;1.50;;;;;;;21.34;37.27;95368.63;5046872;28;20289;-64
2022/06/19 08:43:26;;;;;;;1.70;1.60;;;;;;;21.30;37.52;95362.03;5061539;28;20659;-64
2022/06/19 08:46:29;;;;;;;2.47;1.90;;;;;;;21.30;38.42;95365.56;5052143;28;20221;-64
2022/06/19 08:49:16;;;;;;;1.90;1.65;;;;;;;21.36;36.46;95353.19;5054643;28;20229;-65
2022/06/19 08:51:49;;;;;;;1.90;1.70;;;;;;;21.45;37.45;95346.59;5057426;28;20245;-67
2022/06/19 08:54:57;;;;;;;2.38;1.40;;;;;;;21.44;38.08;95347.66;5055704;28;20249;-68
2022/06/19 08:57:43;;;;;;;2.95;1.50;;;;;;;21.47;37.33;95349.91;5060735;28;20232;-64
2022/06/19 09:00:09;;;;;;;1.65;1.38;;;;;;;21.45;36.32;95343.94;5056714;28;20299;-65
2022/06/19 09:02:41;;;;;;;1.77;1.30;;;;;;;21.51;36.43;95356.44;5059547;28;20316;-68
2022/06/19 09:05:40;;;;;;;2.55;1.80;;;;;;;21.65;37.99;95351.88;5061114;28;20221;-65
2022/06/19 09:08:24;;;;;;;3.60;1.60;;;;;;;21.55;35.97;95351.50;5053097;28;20233;-67
2022/06/19 09:10:55;;;;;;;2.33;1.40;;;;;;;21.78;34.92;95345.63;5052808;28;20275;-66
2022/06/19 09:13:47;;;;;;;1.73;1.20;;;;;;;21.76;34.96;95353.09;5052821;28;20247;-70
2022/06/19 09:16:19;;;;;;;1.67;1.20;;;;;;;21.74;35.11;95353.28;5058625;28;20274;-68
2022/06/19 09:19:19;;;;;;;1.05;1.02;;;;;;;21.71;34.04;95348.34;5051764;28;20259;-69
2022/06/19 09:21:48;;;;;;;1.35;1.23;;;;;;;21.90;34.65;95341.25;5052552;28;20225;-68
2022/06/19 09:24:22;;;;;;;1.20;1.10;;;;;;;21.95;33.27;95338.75;5053982;28;20240;-68
2022/06/19 09:26:55;;;;;;;2.05;1.10;;;;;;;21.92;34.42;95333.84;5049517;28;20235;-67
2022/06/19 09:29:32;;;;;;;1.60;1.30;;;;;;;22.04;34.58;95328.63;5061838;28;20228;-65
2022/06/19 09:32:06;;;;;;;1.65;1.40;;;;;;;22.17;34.17;95327.72;5054925;28;20238;-68
2022/06/19 09:34:50;;;;;;;2.90;1.30;;;;;;;22.21;32.59;95331.63;5057951;28;20503;-65
2022/06/19 09:37:15;;;;;;;1.55;1.20;;;;;;;22.32;31.95;95320.22;5053246;28;20272;-67
2022/06/19 09:39:54;;;;;;;1.35;1.20;;;;;;;22.33;32.24;95316.50;5053032;28;20323;-69
2022/06/19 09:42:30;;;;;;;1.60;1.40;;;;;;;22.35;31.87;95322.47;5072257;28;20225;-63
2022/06/19 09:45:23;;;;;;;1.33;1.23;;;;;;;22.59;32.35;95320.84;5058321;28;20318;-64
2022/06/19 09:47:55;;;;;;;1.20;1.10;;;;;;;22.83;31.52;95313.81;5049542;28;20241;-69
2022/06/19 09:50:50;;;;;;;1.85;0.93;;;;;;;23.15;32.02;95319.09;5047503;28;20229;-67
2022/06/19 09:53:32;;;;;;;2.45;1.30;;;;;;;23.23;30.00;95318.81;5069912;28;20214;-67
2022/06/19 09:56:23;;;;;;;1.63;1.17;;;;;;;23.41;30.43;95319.81;5056590;28;20221;-65
2022/06/19 09:59:11;;;;;;;1.95;1.17;;;;;;;23.54;30.35;95322.34;5034110;28;20305;-62
2022/06/19 10:01:38;;;;;;;5.72;1.35;;;;;;;23.62;30.19;95319.34;4929824;28;20228;-67
2022/06/19 10:04:11;;;;;;;1.00;1.00;;;;;;;23.66;30.70;95304.47;4951352;28;20207;-67
2022/06/19 10:06:43;;;;;;;1.55;1.23;;;;;;;23.76;30.46;95309.28;4963085;28;20224;-66
2022/06/19 10:09:50;;;;;;;1.52;1.25;;;;;;;23.86;30.04;95306.91;4944877;28;20228;-65
2022/06/19 10:12:27;;;;;;;2.08;1.17;;;;;;;23.86;29.97;95301.53;4959157;28;20467;-66
2022/06/19 10:15:00;;;;;;;2.55;1.40;;;;;;;24.13;29.87;95304.66;4946869;28;20243;-67
2022/06/19 10:17:45;;;;;;;1.45;1.20;;;;;;;24.25;28.60;95291.25;4949548;28;20220;-64
2022/06/19 10:20:19;;;;;;;1.30;1.20;;;;;;;24.16;29.00;95285.41;4965755;28;20504;-66
2022/06/19 10:22:50;;;;;;;1.63;1.27;;;;;;;24.46;29.54;95295.31;4953470;28;20242;-67
2022/06/19 10:25:40;;;;;;;2.63;1.25;;;;;;;24.56;30.05;95298.22;4967733;28;20240;-67
2022/06/19 10:28:34;;;;;;;1.10;1.10;;;;;;;24.74;29.15;95291.91;4968696;28;20263;-68
2022/06/19 10:31:15;;;;;;;1.48;1.08;;;;;;;25.01;28.53;95281.50;4946707;28;20331;-62
2022/06/19 10:33:52;;;;;;;1.10;1.00;;;;;;;25.07;27.96;95283.28;4964816;28;20232;-66
2022/06/19 10:36:29;;;;;;;2.97;1.27;;;;;;;25.21;27.99;95293.81;4967559;28;20238;-65
2022/06/19 10:39:26;;;;;;;2.45;1.60;;;;;;;25.41;26.81;95286.13;5026367;28;20309;-63
2022/06/19 10:42:06;;;;;;;1.30;1.20;;;;;;;25.45;26.75;95289.19;5064011;28;20217;-67
2022/06/19 10:44:56;;;;;;;1.73;1.42;;;;;;;25.63;27.44;95282.78;5078925;28;20216;-67
2022/06/19 10:47:37;;;;;;;1.35;1.25;;;;;;;25.64;28.33;95284.44;5060463;28;20225;-68
2022/06/19 10:50:33;;;;;;;1.88;1.30;;;;;;;25.18;27.45;95284.34;5058566;28;20228;-69
2022/06/19 10:53:20;;;;;;;1.30;1.17;;;;;;;25.27;28.15;95282.09;5058602;28;20224;-68
2022/06/19 10:56:07;;;;;;;2.88;1.20;;;;;;;25.55;28.79;95284.00;5059151;28;20215;-67
2022/06/19 10:58:33;;;;;;;2.85;1.10;;;;;;;25.78;27.72;95275.03;5062820;28;20192;-65
2022/06/19 11:01:03;;;;;;;2.92;1.20;;;;;;;25.82;26.83;95270.81;5058845;28;20293;-64
2022/06/19 11:06:34;;;;;;;1.08;1.08;;;;;;;26.32;27.60;95271.97;5058175;28;20278;-66
2022/06/19 11:09:05;;;;;;;1.77;1.02;;;;;;;26.39;27.81;95273.44;5062776;28;20221;-67
2022/06/19 11:11:34;;;;;;;1.30;1.20;;;;;;;26.16;27.09;95265.50;5053449;28;20263;-64
2022/06/19 11:14:08;;;;;;;2.75;1.20;;;;;;;25.51;27.34;95269.38;5059858;28;20240;-64
2022/06/19 11:16:55;;;;;;;3.03;1.10;;;;;;;25.44;27.51;95266.81;5061586;28;20205;-69
2022/06/19 11:19:49;;;;;;;1.40;1.30;;;;;;;25.89;26.49;95263.41;5057695;28;20221;-70
2022/06/19 11:22:39;;;;;;;1.95;1.40;;;;;;;25.64;27.25;95258.34;5060940;28;20233;-68
2022/06/19 11:25:20;;;;;;;1.40;1.30;;;;;;;25.29;27.25;95253.06;5065129;28;20275;-66
2022/06/19 11:27:52;;;;;;;1.20;1.10;;;;;;;25.89;26.79;95258.00;5059260;28;20248;-61
2022/06/19 11:30:27;;;;;;;1.42;1.10;;;;;;;25.96;25.32;95252.50;5057368;28;20797;-69
2022/06/19 11:32:53;;;;;;;1.63;1.33;;;;;;;26.35;24.92;95250.72;5060098;28;20235;-65
2022/06/19 11:35:19;;;;;;;1.60;1.23;;;;;;;26.43;25.81;95241.41;5073206;28;20231;-65
2022/06/19 11:37:51;;;;;;;3.00;1.30;;;;;;;26.44;25.16;95247.59;5056772;28;20239;-65
2022/06/19 11:40:30;;;;;;;1.25;1.10;;;;;;;26.72;24.42;95252.94;5055785;28;20196;-68
2022/06/19 11:42:58;;;;;;;1.45;1.00;;;;;;;26.64;25.15;95244.44;5056386;28;20231;-63
2022/06/19 11:45:23;;;;;;;3.05;1.23;;;;;;;27.03;25.94;95240.69;5045721;28;20231;-69
2022/06/19 11:47:55;;;;;;;1.13;1.02;;;;;;;27.18;25.40;95242.00;5036324;28;20233;-69
2022/06/19 11:50:22;;;;;;;1.52;1.10;;;;;;;27.29;25.07;95238.34;5050246;28;20315;-65
2022/06/19 11:52:52;;;;;;;1.23;1.13;;;;;;;26.96;25.53;95233.84;5065912;28;20209;-71
2022/06/19 11:55:23;;;;;;;1.85;1.38;;;;;;;26.69;25.40;95231.84;5060671;28;20209;-69